createdAt,value
2022-10-05T00:03:42.432Z,11.20
2022-10-05T00:08:44.517Z,11.10
2022-10-05T00:13:47.079Z,11.00
2022-10-05T00:18:51.688Z,10.80
2022-10-05T00:23:57.534Z,10.70
2022-10-05T00:29:01.461Z,10.70
2022-10-05T00:34:04.194Z,10.70
2022-10-05T00:39:06.026Z,10.80
2022-10-05T00:44:23.542Z,10.80
2022-10-05T00:49:35.323Z,10.70
2022-10-05T00:54:50.538Z,10.50
2022-10-05T01:00:05.896Z,10.40
2022-10-05T01:05:16.951Z,10.40
2022-10-05T01:10:18.832Z,10.30
2022-10-05T01:15:34.933Z,10.20
2022-10-05T01:21:05.124Z,10.00
2022-10-05T01:26:22.136Z,9.90
2022-10-05T01:31:54.908Z,9.80
2022-10-05T01:37:12.947Z,9.60
2022-10-05T01:42:22.881Z,9.60
2022-10-05T01:47:48.144Z,9.40
2022-10-05T01:53:17.472Z,9.20
2022-10-05T01:58:37.988Z,9.30
2022-10-05T02:03:53.077Z,9.10
2022-10-05T02:09:17.384Z,8.90
2022-10-05T02:14:25.317Z,9.00
2022-10-05T02:19:37.878Z,9.10
2022-10-05T02:24:48.044Z,9.00
2022-10-05T02:29:51.650Z,9.00
2022-10-05T02:34:58.066Z,9.00
2022-10-05T02:40:06.523Z,9.10
2022-10-05T02:45:14.918Z,9.10
2022-10-05T02:51:05.075Z,9.10
2022-10-05T02:56:23.740Z,9.00
2022-10-05T03:01:37.155Z,9.10
2022-10-05T03:06:50.928Z,8.90
2022-10-05T03:12:10.998Z,9.00
2022-10-05T03:17:22.418Z,9.00
2022-10-05T03:22:44.549Z,8.90
2022-10-05T03:27:59.621Z,8.70
2022-10-05T03:33:14.503Z,8.70
2022-10-05T03:38:25.678Z,8.60
2022-10-05T03:44:09.649Z,8.60
2022-10-05T03:49:42.965Z,8.70
2022-10-05T03:54:48.886Z,8.70
2022-10-05T04:00:05.072Z,8.40
2022-10-05T04:05:20.252Z,8.50
2022-10-05T04:10:27.245Z,8.80
2022-10-05T04:15:40.533Z,8.70
2022-10-05T04:20:46.569Z,8.70
2022-10-05T04:25:56.345Z,8.70
2022-10-05T04:31:00.610Z,8.70
2022-10-05T04:36:26.440Z,8.60
2022-10-05T04:42:03.307Z,8.50
2022-10-05T04:47:27.397Z,8.40
2022-10-05T04:52:51.255Z,8.30
2022-10-05T04:58:11.372Z,8.40
2022-10-05T05:03:42.020Z,8.50
2022-10-05T05:09:11.902Z,8.30
2022-10-05T05:14:28.925Z,8.30
2022-10-05T05:19:50.628Z,8.30
2022-10-05T05:25:11.600Z,8.30
2022-10-05T05:30:42.918Z,8.20
2022-10-05T05:35:53.926Z,8.30
2022-10-05T05:41:15.468Z,8.40
2022-10-05T05:47:02.880Z,8.40
2022-10-05T05:52:28.661Z,8.60
2022-10-05T05:57:40.572Z,8.70
2022-10-05T06:02:51.838Z,8.80
2022-10-05T06:07:55.965Z,9.10
2022-10-05T06:13:04.338Z,9.70
2022-10-05T06:18:16.923Z,10.10
2022-10-05T06:23:25.473Z,10.10
2022-10-05T06:28:29.804Z,11.20
2022-10-05T06:33:50.977Z,13.60
2022-10-05T06:39:28.956Z,15.30
2022-10-05T06:44:39.547Z,16.10
2022-10-05T06:50:53.351Z,17.70
2022-10-05T06:56:13.541Z,18.60
2022-10-05T07:01:29.169Z,19.50
2022-10-05T07:06:43.275Z,18.70
2022-10-05T07:12:18.149Z,19.00
2022-10-05T07:17:45.477Z,20.50
2022-10-05T07:23:03.490Z,21.10
2022-10-05T07:28:18.514Z,21.60
2022-10-05T07:33:46.607Z,23.30
2022-10-05T07:39:06.029Z,22.70
2022-10-05T07:44:36.521Z,25.70
2022-10-05T07:49:48.581Z,25.30
2022-10-05T07:54:56.457Z,24.20
2022-10-05T08:00:05.262Z,22.90
2022-10-05T08:05:36.034Z,21.60
2022-10-05T08:10:44.556Z,23.30
2022-10-05T08:15:50.837Z,23.80
2022-10-05T08:20:58.582Z,23.70
2022-10-05T08:26:08.745Z,24.80
2022-10-05T08:31:51.835Z,25.70
2022-10-05T08:37:13.369Z,25.80
2022-10-05T08:42:27.284Z,25.50
2022-10-05T08:47:41.015Z,24.20
2022-10-05T08:53:09.680Z,24.70
2022-10-05T08:58:54.635Z,23.50
2022-10-05T09:04:20.236Z,23.90
2022-10-05T09:09:51.922Z,24.30
2022-10-05T09:15:26.854Z,23.60
2022-10-05T09:20:53.941Z,23.70
2022-10-05T09:26:07.763Z,22.50
2022-10-05T09:31:29.937Z,22.70
2022-10-05T09:37:20.093Z,23.50
2022-10-05T09:42:47.744Z,23.40
2022-10-05T09:48:21.831Z,23.10
2022-10-05T09:53:34.331Z,23.80
2022-10-05T09:58:49.476Z,24.50
2022-10-05T10:04:22.179Z,24.30
2022-10-05T10:09:39.459Z,24.30
2022-10-05T10:14:50.242Z,23.60
2022-10-05T10:20:06.784Z,24.20
2022-10-05T10:25:34.753Z,24.70
2022-10-05T10:31:01.417Z,24.90
2022-10-05T10:36:21.661Z,24.20
2022-10-05T10:41:48.122Z,24.00
2022-10-05T10:47:06.313Z,23.40
2022-10-05T10:52:17.740Z,22.50
2022-10-05T10:57:35.306Z,22.70
2022-10-05T11:02:50.034Z,23.20
2022-10-05T11:08:23.936Z,23.30
2022-10-05T11:14:02.749Z,23.10
2022-10-05T11:19:16.772Z,23.60
2022-10-05T11:24:50.201Z,23.40
2022-10-05T11:30:10.880Z,24.10
2022-10-05T11:35:34.855Z,24.60
2022-10-05T11:41:12.526Z,24.00
2022-10-05T11:46:14.333Z,24.30
2022-10-05T11:51:40.499Z,24.30
2022-10-05T11:56:44.255Z,24.10
2022-10-05T12:01:57.294Z,23.60
2022-10-05T12:07:17.659Z,23.80
2022-10-05T12:12:29.750Z,24.00
2022-10-05T12:18:01.027Z,23.70
2022-10-05T12:23:14.703Z,23.40
2022-10-05T12:28:19.409Z,24.10
2022-10-05T12:33:24.165Z,24.20
2022-10-05T12:38:28.621Z,23.60
2022-10-05T12:44:03.258Z,23.30
2022-10-05T12:49:42.413Z,23.20
2022-10-05T12:55:14.964Z,23.30
2022-10-05T13:00:22.957Z,23.60
2022-10-05T13:05:31.630Z,23.60
2022-10-05T13:11:01.864Z,23.10
2022-10-05T13:16:21.737Z,23.20
2022-10-05T13:21:26.813Z,23.40
2022-10-05T13:26:38.865Z,23.60
2022-10-05T13:31:53.256Z,23.40
2022-10-05T13:37:31.672Z,23.30
2022-10-05T13:42:46.132Z,23.00
2022-10-05T13:48:03.345Z,22.60
2022-10-05T13:53:24.444Z,22.30
2022-10-05T13:58:46.337Z,22.30
2022-10-05T14:04:06.307Z,22.20
2022-10-05T14:09:27.551Z,22.30
2022-10-05T14:14:42.319Z,22.20
2022-10-05T14:19:47.864Z,22.20
2022-10-05T14:25:01.910Z,22.20
2022-10-05T14:30:12.499Z,22.10
2022-10-05T14:35:17.903Z,22.10
2022-10-05T14:40:34.273Z,22.00
2022-10-05T14:45:36.489Z,22.20
2022-10-05T14:51:03.172Z,22.30
2022-10-05T14:56:17.047Z,22.50
2022-10-05T15:01:26.291Z,22.80
2022-10-05T15:06:44.786Z,22.90
2022-10-05T15:11:50.840Z,22.70
2022-10-05T15:17:04.430Z,22.70
2022-10-05T15:22:27.062Z,22.50
2022-10-05T15:27:28.811Z,22.30
2022-10-05T15:32:42.686Z,22.00
2022-10-05T15:37:47.583Z,21.80
2022-10-05T15:42:54.711Z,21.80
2022-10-05T15:48:01.555Z,21.70
2022-10-05T15:53:49.532Z,21.60
2022-10-05T15:59:15.440Z,21.30
2022-10-05T16:04:35.779Z,21.10
2022-10-05T16:09:52.825Z,21.20
2022-10-05T16:15:16.803Z,21.00
2022-10-05T16:20:28.706Z,20.90
2022-10-05T16:26:09.056Z,20.60
2022-10-05T16:31:19.552Z,20.40
2022-10-05T16:36:26.209Z,20.20
2022-10-05T16:41:35.311Z,19.70
2022-10-05T16:46:50.802Z,19.40
2022-10-05T16:52:00.260Z,19.30
2022-10-05T16:57:01.940Z,18.90
2022-10-05T17:02:07.210Z,18.70
2022-10-05T17:07:26.455Z,18.50
2022-10-05T17:12:53.791Z,18.30
2022-10-05T17:18:27.200Z,18.30
2022-10-05T17:23:41.753Z,18.30
2022-10-05T17:28:52.387Z,18.00
2022-10-05T17:34:00.215Z,18.00
2022-10-05T17:39:20.394Z,17.90
2022-10-05T17:44:24.868Z,17.80
2022-10-05T17:50:17.781Z,17.90
2022-10-05T17:55:31.596Z,17.70
2022-10-05T18:00:55.960Z,17.80
2022-10-05T18:06:16.642Z,17.60
2022-10-05T18:11:38.322Z,17.70
2022-10-05T18:17:03.711Z,17.70
2022-10-05T18:22:15.469Z,17.80
2022-10-05T18:28:06.057Z,17.50
2022-10-05T18:33:13.895Z,17.70
2022-10-05T18:38:54.674Z,17.90
2022-10-05T18:44:03.375Z,17.90
2022-10-05T18:49:36.191Z,18.00
2022-10-05T18:54:54.774Z,17.90
2022-10-05T19:00:16.145Z,18.00
2022-10-05T19:06:01.154Z,18.00
2022-10-05T19:11:30.729Z,18.30
2022-10-05T19:17:01.692Z,18.30
2022-10-05T19:22:29.460Z,18.50
2022-10-05T19:27:55.355Z,18.70
2022-10-05T19:33:25.971Z,18.80
2022-10-05T19:39:03.867Z,18.80
2022-10-05T19:44:08.613Z,18.70
2022-10-05T19:49:10.795Z,18.60
2022-10-05T19:54:28.427Z,18.50
2022-10-05T19:59:34.623Z,18.30
2022-10-05T20:04:41.127Z,18.10
2022-10-05T20:10:14.329Z,18.00
2022-10-05T20:15:49.953Z,17.80
2022-10-05T20:20:51.885Z,17.70
2022-10-05T20:26:12.864Z,17.50
2022-10-05T20:31:14.717Z,17.40
2022-10-05T20:36:16.539Z,17.40
2022-10-05T20:41:20.618Z,17.20
2022-10-05T20:46:23.039Z,17.00
2022-10-05T20:51:24.867Z,16.90
2022-10-05T20:56:26.960Z,16.80
2022-10-05T21:01:30.294Z,16.90
2022-10-05T21:06:32.415Z,16.80
2022-10-05T21:11:34.127Z,16.80
2022-10-05T21:16:38.081Z,16.80
2022-10-05T21:21:45.300Z,16.80
2022-10-05T21:26:47.709Z,16.70
2022-10-05T21:31:49.542Z,16.70
2022-10-05T21:36:51.509Z,16.60
2022-10-05T21:41:53.334Z,16.70
2022-10-05T21:46:55.485Z,16.80
2022-10-05T21:51:59.287Z,16.80
2022-10-05T21:57:01.197Z,16.90
2022-10-05T22:02:03.485Z,16.90
2022-10-05T22:07:19.044Z,16.90
2022-10-05T22:12:21.511Z,17.00
2022-10-05T22:17:27.310Z,17.10
2022-10-05T22:22:29.433Z,17.20
2022-10-05T22:27:32.370Z,17.40
2022-10-05T22:32:34.075Z,17.50
2022-10-05T22:37:37.948Z,17.50
2022-10-05T22:42:40.472Z,17.50
2022-10-05T22:47:42.975Z,17.40
2022-10-05T22:52:44.809Z,17.30
2022-10-05T22:57:46.572Z,17.10
2022-10-05T23:02:48.396Z,16.90
2022-10-05T23:07:50.125Z,16.80
2022-10-05T23:13:00.553Z,16.60
2022-10-05T23:18:02.902Z,16.60
2022-10-05T23:23:04.625Z,16.60
2022-10-05T23:28:06.539Z,16.50
2022-10-05T23:33:08.293Z,16.40
2022-10-05T23:38:10.015Z,16.30
2022-10-05T23:43:11.757Z,16.40
2022-10-05T23:48:13.746Z,16.30
2022-10-05T23:53:16.424Z,16.30
2022-10-05T23:58:18.258Z,16.30
